sensor_id;sensor_type;location;lat;lon;timestamp;P1;durP1;ratioP1;P2;durP2;ratioP2
20431;SDS011;10375;49.136;10.366;2023-06-24T00:01:31;7.60;;;4.88;;
20431;SDS011;10375;49.136;10.366;2023-06-24T00:04:00;7.97;;;4.60;;
20431;SDS011;10375;49.136;10.366;2023-06-24T00:06:27;6.03;;;4.53;;
20431;SDS011;10375;49.136;10.366;2023-06-24T00:08:54;8.38;;;4.65;;
20431;SDS011;10375;49.136;10.366;2023-06-24T00:11:27;5.72;;;5.13;;
20431;SDS011;10375;49.136;10.366;2023-06-24T00:13:56;5.05;;;3.78;;
20431;SDS011;10375;49.136;10.366;2023-06-24T00:16:23;10.43;;;4.80;;
20431;SDS011;10375;49.136;10.366;2023-06-24T00:18:54;9.30;;;4.63;;
20431;SDS011;10375;49.136;10.366;2023-06-24T00:21:25;5.82;;;4.53;;
20431;SDS011;10375;49.136;10.366;2023-06-24T00:23:59;6.55;;;4.85;;
20431;SDS011;10375;49.136;10.366;2023-06-24T00:26:31;4.65;;;4.15;;
20431;SDS011;10375;49.136;10.366;2023-06-24T00:28:58;4.18;;;3.78;;
20431;SDS011;10375;49.136;10.366;2023-06-24T00:31:25;4.95;;;4.10;;
20431;SDS011;10375;49.136;10.366;2023-06-24T00:33:53;8.43;;;4.45;;
20431;SDS011;10375;49.136;10.366;2023-06-24T00:36:20;7.88;;;4.75;;
20431;SDS011;10375;49.136;10.366;2023-06-24T00:38:47;7.03;;;4.55;;
20431;SDS011;10375;49.136;10.366;2023-06-24T00:41:17;5.32;;;4.70;;
20431;SDS011;10375;49.136;10.366;2023-06-24T00:43:45;6.00;;;4.05;;
20431;SDS011;10375;49.136;10.366;2023-06-24T00:46:12;6.78;;;4.60;;
20431;SDS011;10375;49.136;10.366;2023-06-24T00:48:40;5.65;;;4.22;;
20431;SDS011;10375;49.136;10.366;2023-06-24T00:51:07;4.53;;;4.10;;
20431;SDS011;10375;49.136;10.366;2023-06-24T00:53:34;7.00;;;4.60;;
20431;SDS011;10375;49.136;10.366;2023-06-24T00:56:01;5.22;;;4.18;;
20431;SDS011;10375;49.136;10.366;2023-06-24T00:58:31;4.85;;;4.18;;
20431;SDS011;10375;49.136;10.366;2023-06-24T01:00:59;8.02;;;4.70;;
20431;SDS011;10375;49.136;10.366;2023-06-24T01:03:27;6.07;;;4.30;;
20431;SDS011;10375;49.136;10.366;2023-06-24T01:05:56;7.30;;;4.63;;
20431;SDS011;10375;49.136;10.366;2023-06-24T01:08:24;4.47;;;4.03;;
20431;SDS011;10375;49.136;10.366;2023-06-24T01:10:51;6.35;;;4.10;;
20431;SDS011;10375;49.136;10.366;2023-06-24T01:13:18;4.47;;;4.03;;
20431;SDS011;10375;49.136;10.366;2023-06-24T01:15:46;5.40;;;4.40;;
20431;SDS011;10375;49.136;10.366;2023-06-24T01:18:20;5.78;;;4.60;;
20431;SDS011;10375;49.136;10.366;2023-06-24T01:21:03;4.68;;;4.18;;
20431;SDS011;10375;49.136;10.366;2023-06-24T01:23:42;5.05;;;4.20;;
20431;SDS011;10375;49.136;10.366;2023-06-24T01:29:29;8.02;;;4.47;;
20431;SDS011;10375;49.136;10.366;2023-06-24T01:40:12;7.68;;;4.20;;
20431;SDS011;10375;49.136;10.366;2023-06-24T01:42:47;5.13;;;4.35;;
20431;SDS011;10375;49.136;10.366;2023-06-24T01:45:19;8.90;;;4.57;;
20431;SDS011;10375;49.136;10.366;2023-06-24T01:47:54;5.70;;;4.72;;
20431;SDS011;10375;49.136;10.366;2023-06-24T01:50:29;5.32;;;4.05;;
20431;SDS011;10375;49.136;10.366;2023-06-24T01:52:59;5.43;;;4.55;;
20431;SDS011;10375;49.136;10.366;2023-06-24T01:55:30;5.97;;;4.53;;
20431;SDS011;10375;49.136;10.366;2023-06-24T01:58:00;7.13;;;4.25;;
20431;SDS011;10375;49.136;10.366;2023-06-24T02:00:29;6.90;;;5.35;;
20431;SDS011;10375;49.136;10.366;2023-06-24T02:02:57;5.97;;;4.45;;
20431;SDS011;10375;49.136;10.366;2023-06-24T02:05:25;5.78;;;4.93;;
20431;SDS011;10375;49.136;10.366;2023-06-24T02:07:54;6.65;;;5.25;;
20431;SDS011;10375;49.136;10.366;2023-06-24T02:10:23;6.32;;;4.70;;
20431;SDS011;10375;49.136;10.366;2023-06-24T02:12:51;5.80;;;4.50;;
20431;SDS011;10375;49.136;10.366;2023-06-24T02:15:20;4.97;;;4.22;;
20431;SDS011;10375;49.136;10.366;2023-06-24T02:17:49;7.28;;;5.18;;
20431;SDS011;10375;49.136;10.366;2023-06-24T02:20:18;7.93;;;4.60;;
20431;SDS011;10375;49.136;10.366;2023-06-24T02:22:48;6.55;;;4.70;;
20431;SDS011;10375;49.136;10.366;2023-06-24T02:25:15;7.68;;;4.57;;
20431;SDS011;10375;49.136;10.366;2023-06-24T02:27:43;5.55;;;4.70;;
20431;SDS011;10375;49.136;10.366;2023-06-24T02:30:10;5.95;;;4.70;;
20431;SDS011;10375;49.136;10.366;2023-06-24T02:32:39;5.80;;;5.20;;
20431;SDS011;10375;49.136;10.366;2023-06-24T02:35:06;6.40;;;4.97;;
20431;SDS011;10375;49.136;10.366;2023-06-24T02:37:34;6.57;;;4.90;;
20431;SDS011;10375;49.136;10.366;2023-06-24T02:40:01;7.22;;;4.47;;
20431;SDS011;10375;49.136;10.366;2023-06-24T02:42:31;5.47;;;4.88;;
20431;SDS011;10375;49.136;10.366;2023-06-24T02:44:58;6.18;;;5.30;;
20431;SDS011;10375;49.136;10.366;2023-06-24T02:47:26;7.68;;;4.60;;
20431;SDS011;10375;49.136;10.366;2023-06-24T02:49:54;7.57;;;4.75;;
20431;SDS011;10375;49.136;10.366;2023-06-24T02:52:24;5.68;;;4.85;;
20431;SDS011;10375;49.136;10.366;2023-06-24T02:54:58;6.93;;;5.35;;
20431;SDS011;10375;49.136;10.366;2023-06-24T02:57:25;8.80;;;5.18;;
20431;SDS011;10375;49.136;10.366;2023-06-24T02:59:53;7.60;;;5.25;;
20431;SDS011;10375;49.136;10.366;2023-06-24T03:02:20;9.23;;;6.78;;
20431;SDS011;10375;49.136;10.366;2023-06-24T03:04:49;5.35;;;4.82;;
20431;SDS011;10375;49.136;10.366;2023-06-24T03:07:17;6.47;;;5.47;;
20431;SDS011;10375;49.136;10.366;2023-06-24T03:09:47;8.43;;;4.88;;
20431;SDS011;10375;49.136;10.366;2023-06-24T03:12:14;6.00;;;5.03;;
20431;SDS011;10375;49.136;10.366;2023-06-24T03:14:41;10.35;;;5.30;;
20431;SDS011;10375;49.136;10.366;2023-06-24T03:17:08;7.22;;;5.80;;
20431;SDS011;10375;49.136;10.366;2023-06-24T03:19:36;9.90;;;5.93;;
20431;SDS011;10375;49.136;10.366;2023-06-24T03:22:03;21.23;;;6.53;;
20431;SDS011;10375;49.136;10.366;2023-06-24T03:24:30;6.43;;;5.32;;
20431;SDS011;10375;49.136;10.366;2023-06-24T03:26:57;7.40;;;5.93;;
20431;SDS011;10375;49.136;10.366;2023-06-24T03:29:25;6.55;;;5.43;;
20431;SDS011;10375;49.136;10.366;2023-06-24T03:31:52;8.63;;;5.07;;
20431;SDS011;10375;49.136;10.366;2023-06-24T03:34:19;9.77;;;5.63;;
20431;SDS011;10375;49.136;10.366;2023-06-24T03:36:46;9.68;;;6.00;;
20431;SDS011;10375;49.136;10.366;2023-06-24T03:39:13;9.70;;;6.25;;
20431;SDS011;10375;49.136;10.366;2023-06-24T03:41:40;15.48;;;7.03;;
20431;SDS011;10375;49.136;10.366;2023-06-24T03:44:08;14.15;;;5.20;;
20431;SDS011;10375;49.136;10.366;2023-06-24T03:46:35;8.68;;;6.03;;
20431;SDS011;10375;49.136;10.366;2023-06-24T03:49:02;6.63;;;5.40;;
20431;SDS011;10375;49.136;10.366;2023-06-24T03:51:29;6.97;;;5.40;;
20431;SDS011;10375;49.136;10.366;2023-06-24T03:53:57;7.50;;;5.80;;
20431;SDS011;10375;49.136;10.366;2023-06-24T03:56:24;9.25;;;5.60;;
20431;SDS011;10375;49.136;10.366;2023-06-24T03:58:51;15.63;;;6.10;;
20431;SDS011;10375;49.136;10.366;2023-06-24T04:01:19;9.63;;;6.10;;
20431;SDS011;10375;49.136;10.366;2023-06-24T04:03:46;10.27;;;6.30;;
20431;SDS011;10375;49.136;10.366;2023-06-24T04:06:13;16.58;;;7.57;;
20431;SDS011;10375;49.136;10.366;2023-06-24T04:08:41;8.30;;;5.90;;
20431;SDS011;10375;49.136;10.366;2023-06-24T04:11:10;18.00;;;6.70;;
20431;SDS011;10375;49.136;10.366;2023-06-24T04:13:38;9.45;;;5.80;;
20431;SDS011;10375;49.136;10.366;2023-06-24T04:16:05;6.53;;;4.97;;
20431;SDS011;10375;49.136;10.366;2023-06-24T04:18:32;11.18;;;5.95;;
20431;SDS011;10375;49.136;10.366;2023-06-24T04:21:00;6.25;;;5.55;;
20431;SDS011;10375;49.136;10.366;2023-06-24T04:23:27;11.35;;;6.18;;
20431;SDS011;10375;49.136;10.366;2023-06-24T04:25:54;11.55;;;5.97;;
20431;SDS011;10375;49.136;10.366;2023-06-24T04:28:21;7.72;;;5.93;;
20431;SDS011;10375;49.136;10.366;2023-06-24T04:30:48;8.25;;;6.15;;
20431;SDS011;10375;49.136;10.366;2023-06-24T04:33:16;12.70;;;5.95;;
20431;SDS011;10375;49.136;10.366;2023-06-24T04:35:43;9.85;;;6.75;;
20431;SDS011;10375;49.136;10.366;2023-06-24T04:38:10;9.88;;;6.25;;
20431;SDS011;10375;49.136;10.366;2023-06-24T04:40:37;10.48;;;6.57;;
20431;SDS011;10375;49.136;10.366;2023-06-24T04:43:05;16.73;;;7.53;;
20431;SDS011;10375;49.136;10.366;2023-06-24T04:45:32;21.27;;;8.45;;
20431;SDS011;10375;49.136;10.366;2023-06-24T04:48:02;14.52;;;7.32;;
20431;SDS011;10375;49.136;10.366;2023-06-24T04:50:30;21.75;;;8.60;;
20431;SDS011;10375;49.136;10.366;2023-06-24T04:52:57;20.27;;;8.40;;
20431;SDS011;10375;49.136;10.366;2023-06-24T04:55:25;15.55;;;7.32;;
20431;SDS011;10375;49.136;10.366;2023-06-24T04:57:56;26.38;;;8.18;;
20431;SDS011;10375;49.136;10.366;2023-06-24T05:00:24;15.07;;;7.32;;
20431;SDS011;10375;49.136;10.366;2023-06-24T05:02:55;19.77;;;7.80;;
20431;SDS011;10375;49.136;10.366;2023-06-24T05:05:22;14.95;;;7.88;;
20431;SDS011;10375;49.136;10.366;2023-06-24T05:07:50;8.35;;;6.78;;
20431;SDS011;10375;49.136;10.366;2023-06-24T05:10:18;16.85;;;6.60;;
20431;SDS011;10375;49.136;10.366;2023-06-24T05:12:46;14.57;;;5.72;;
20431;SDS011;10375;49.136;10.366;2023-06-24T05:15:16;6.63;;;5.55;;
20431;SDS011;10375;49.136;10.366;2023-06-24T05:17:44;14.05;;;5.72;;
20431;SDS011;10375;49.136;10.366;2023-06-24T05:20:21;11.23;;;5.38;;
20431;SDS011;10375;49.136;10.366;2023-06-24T05:22:49;11.82;;;5.30;;
20431;SDS011;10375;49.136;10.366;2023-06-24T05:25:18;8.77;;;5.00;;
20431;SDS011;10375;49.136;10.366;2023-06-24T05:27:45;15.30;;;4.68;;
20431;SDS011;10375;49.136;10.366;2023-06-24T05:30:13;9.52;;;5.22;;
20431;SDS011;10375;49.136;10.366;2023-06-24T05:32:41;7.38;;;4.43;;
20431;SDS011;10375;49.136;10.366;2023-06-24T05:35:09;8.00;;;5.15;;
20431;SDS011;10375;49.136;10.366;2023-06-24T05:37:37;6.57;;;4.63;;
20431;SDS011;10375;49.136;10.366;2023-06-24T05:40:05;10.18;;;4.63;;
20431;SDS011;10375;49.136;10.366;2023-06-24T05:42:34;52.67;;;7.43;;
20431;SDS011;10375;49.136;10.366;2023-06-24T05:45:02;8.07;;;4.00;;
20431;SDS011;10375;49.136;10.366;2023-06-24T05:47:30;12.43;;;4.95;;
20431;SDS011;10375;49.136;10.366;2023-06-24T05:49:57;25.90;;;5.90;;
20431;SDS011;10375;49.136;10.366;2023-06-24T05:52:24;9.52;;;4.32;;
20431;SDS011;10375;49.136;10.366;2023-06-24T05:54:52;9.82;;;4.45;;
20431;SDS011;10375;49.136;10.366;2023-06-24T05:57:19;10.50;;;4.35;;
20431;SDS011;10375;49.136;10.366;2023-06-24T05:59:46;6.80;;;3.92;;
20431;SDS011;10375;49.136;10.366;2023-06-24T06:02:13;16.42;;;4.32;;
20431;SDS011;10375;49.136;10.366;2023-06-24T06:04:41;5.20;;;4.05;;
20431;SDS011;10375;49.136;10.366;2023-06-24T06:07:08;4.70;;;4.00;;
20431;SDS011;10375;49.136;10.366;2023-06-24T06:09:35;9.35;;;4.10;;
20431;SDS011;10375;49.136;10.366;2023-06-24T06:12:02;5.90;;;4.35;;
20431;SDS011;10375;49.136;10.366;2023-06-24T06:14:29;4.28;;;3.40;;
20431;SDS011;10375;49.136;10.366;2023-06-24T06:16:57;4.78;;;3.40;;
20431;SDS011;10375;49.136;10.366;2023-06-24T06:19:23;6.22;;;3.40;;
20431;SDS011;10375;49.136;10.366;2023-06-24T06:21:51;27.92;;;4.78;;
20431;SDS011;10375;49.136;10.366;2023-06-24T06:24:18;4.43;;;3.30;;
20431;SDS011;10375;49.136;10.366;2023-06-24T06:26:45;4.50;;;3.40;;
20431;SDS011;10375;49.136;10.366;2023-06-24T06:29:13;4.13;;;3.42;;
20431;SDS011;10375;49.136;10.366;2023-06-24T06:31:40;5.40;;;3.00;;
20431;SDS011;10375;49.136;10.366;2023-06-24T06:34:07;4.95;;;3.03;;
20431;SDS011;10375;49.136;10.366;2023-06-24T06:36:35;7.80;;;3.17;;
20431;SDS011;10375;49.136;10.366;2023-06-24T06:39:02;4.28;;;3.03;;
20431;SDS011;10375;49.136;10.366;2023-06-24T06:41:29;7.72;;;4.85;;
20431;SDS011;10375;49.136;10.366;2023-06-24T06:43:56;10.07;;;4.07;;
20431;SDS011;10375;49.136;10.366;2023-06-24T06:46:23;4.20;;;2.92;;
20431;SDS011;10375;49.136;10.366;2023-06-24T06:48:50;3.20;;;2.47;;
20431;SDS011;10375;49.136;10.366;2023-06-24T06:51:17;3.58;;;2.60;;
20431;SDS011;10375;49.136;10.366;2023-06-24T06:53:47;4.10;;;2.90;;
20431;SDS011;10375;49.136;10.366;2023-06-24T06:56:18;4.85;;;2.88;;
20431;SDS011;10375;49.136;10.366;2023-06-24T06:58:51;10.52;;;3.00;;
20431;SDS011;10375;49.136;10.366;2023-06-24T07:01:18;8.10;;;2.88;;
20431;SDS011;10375;49.136;10.366;2023-06-24T07:03:46;7.60;;;3.17;;
20431;SDS011;10375;49.136;10.366;2023-06-24T07:06:17;5.72;;;2.95;;
20431;SDS011;10375;49.136;10.366;2023-06-24T07:08:45;3.38;;;2.70;;
20431;SDS011;10375;49.136;10.366;2023-06-24T07:11:13;9.88;;;2.55;;
20431;SDS011;10375;49.136;10.366;2023-06-24T07:13:40;9.00;;;3.45;;
20431;SDS011;10375;49.136;10.366;2023-06-24T07:16:07;6.28;;;2.97;;
20431;SDS011;10375;49.136;10.366;2023-06-24T07:18:35;4.97;;;2.90;;
20431;SDS011;10375;49.136;10.366;2023-06-24T07:21:02;12.43;;;3.78;;
20431;SDS011;10375;49.136;10.366;2023-06-24T07:23:30;4.35;;;3.28;;
20431;SDS011;10375;49.136;10.366;2023-06-24T07:25:57;5.15;;;3.28;;
20431;SDS011;10375;49.136;10.366;2023-06-24T07:28:27;4.18;;;3.15;;
20431;SDS011;10375;49.136;10.366;2023-06-24T07:30:54;10.55;;;3.33;;
20431;SDS011;10375;49.136;10.366;2023-06-24T07:33:21;25.15;;;4.75;;
20431;SDS011;10375;49.136;10.366;2023-06-24T07:35:48;17.45;;;3.40;;
20431;SDS011;10375;49.136;10.366;2023-06-24T07:38:16;20.85;;;3.65;;
20431;SDS011;10375;49.136;10.366;2023-06-24T07:40:43;7.55;;;3.35;;
20431;SDS011;10375;49.136;10.366;2023-06-24T07:43:10;6.32;;;2.80;;
20431;SDS011;10375;49.136;10.366;2023-06-24T07:45:37;7.28;;;3.85;;
20431;SDS011;10375;49.136;10.366;2023-06-24T07:48:04;7.65;;;3.22;;
20431;SDS011;10375;49.136;10.366;2023-06-24T07:50:33;5.15;;;3.25;;
20431;SDS011;10375;49.136;10.366;2023-06-24T07:53:02;25.30;;;4.03;;
20431;SDS011;10375;49.136;10.366;2023-06-24T07:55:29;4.65;;;2.88;;
20431;SDS011;10375;49.136;10.366;2023-06-24T07:57:56;6.80;;;4.07;;
20431;SDS011;10375;49.136;10.366;2023-06-24T08:00:24;4.03;;;3.47;;
20431;SDS011;10375;49.136;10.366;2023-06-24T08:02:52;4.80;;;3.63;;
20431;SDS011;10375;49.136;10.366;2023-06-24T08:05:20;3.97;;;3.50;;
20431;SDS011;10375;49.136;10.366;2023-06-24T08:07:47;4.43;;;3.03;;
20431;SDS011;10375;49.136;10.366;2023-06-24T08:10:14;4.22;;;3.35;;
20431;SDS011;10375;49.136;10.366;2023-06-24T08:12:41;14.20;;;3.13;;
20431;SDS011;10375;49.136;10.366;2023-06-24T08:15:09;5.07;;;3.58;;
20431;SDS011;10375;49.136;10.366;2023-06-24T08:17:36;4.57;;;3.10;;
20431;SDS011;10375;49.136;10.366;2023-06-24T08:20:03;8.05;;;4.05;;
20431;SDS011;10375;49.136;10.366;2023-06-24T08:22:31;8.88;;;3.47;;
20431;SDS011;10375;49.136;10.366;2023-06-24T08:24:58;13.43;;;4.05;;
20431;SDS011;10375;49.136;10.366;2023-06-24T08:27:25;6.15;;;3.40;;
20431;SDS011;10375;49.136;10.366;2023-06-24T08:29:52;6.13;;;3.55;;
20431;SDS011;10375;49.136;10.366;2023-06-24T08:32:20;4.88;;;3.25;;
20431;SDS011;10375;49.136;10.366;2023-06-24T08:34:47;7.22;;;3.63;;
20431;SDS011;10375;49.136;10.366;2023-06-24T08:37:14;6.07;;;3.30;;
20431;SDS011;10375;49.136;10.366;2023-06-24T08:39:41;4.45;;;3.40;;
20431;SDS011;10375;49.136;10.366;2023-06-24T08:42:09;6.47;;;3.40;;
20431;SDS011;10375;49.136;10.366;2023-06-24T08:44:36;14.82;;;5.97;;
20431;SDS011;10375;49.136;10.366;2023-06-24T08:47:03;6.97;;;3.17;;
20431;SDS011;10375;49.136;10.366;2023-06-24T08:49:30;4.95;;;3.40;;
20431;SDS011;10375;49.136;10.366;2023-06-24T08:52:03;6.72;;;3.22;;
20431;SDS011;10375;49.136;10.366;2023-06-24T08:54:35;11.23;;;3.40;;
20431;SDS011;10375;49.136;10.366;2023-06-24T08:57:02;4.18;;;2.90;;
20431;SDS011;10375;49.136;10.366;2023-06-24T08:59:32;2.80;;;2.50;;
20431;SDS011;10375;49.136;10.366;2023-06-24T09:02:01;6.68;;;2.63;;
20431;SDS011;10375;49.136;10.366;2023-06-24T09:04:28;8.43;;;2.90;;
20431;SDS011;10375;49.136;10.366;2023-06-24T09:06:56;4.75;;;2.80;;
20431;SDS011;10375;49.136;10.366;2023-06-24T09:09:23;10.63;;;3.42;;
20431;SDS011;10375;49.136;10.366;2023-06-24T09:11:54;6.55;;;3.45;;
20431;SDS011;10375;49.136;10.366;2023-06-24T09:14:26;3.55;;;2.80;;
20431;SDS011;10375;49.136;10.366;2023-06-24T09:16:56;98.50;;;7.22;;
20431;SDS011;10375;49.136;10.366;2023-06-24T09:19:36;7.60;;;2.88;;
20431;SDS011;10375;49.136;10.366;2023-06-24T09:22:03;5.80;;;2.90;;
20431;SDS011;10375;49.136;10.366;2023-06-24T09:24:35;3.47;;;2.85;;
20431;SDS011;10375;49.136;10.366;2023-06-24T09:27:03;3.05;;;2.63;;
20431;SDS011;10375;49.136;10.366;2023-06-24T09:29:34;2.67;;;2.40;;
20431;SDS011;10375;49.136;10.366;2023-06-24T09:32:05;4.45;;;2.35;;
20431;SDS011;10375;49.136;10.366;2023-06-24T09:34:34;4.38;;;2.72;;
20431;SDS011;10375;49.136;10.366;2023-06-24T09:37:01;4.72;;;2.85;;
20431;SDS011;10375;49.136;10.366;2023-06-24T09:39:34;3.00;;;2.70;;
20431;SDS011;10375;49.136;10.366;2023-06-24T09:42:03;4.93;;;3.20;;
20431;SDS011;10375;49.136;10.366;2023-06-24T09:44:32;4.68;;;2.67;;
20431;SDS011;10375;49.136;10.366;2023-06-24T09:46:59;5.30;;;3.05;;
20431;SDS011;10375;49.136;10.366;2023-06-24T09:49:27;6.57;;;2.60;;
20431;SDS011;10375;49.136;10.366;2023-06-24T09:51:55;4.47;;;2.55;;
20431;SDS011;10375;49.136;10.366;2023-06-24T09:54:27;4.55;;;2.80;;
20431;SDS011;10375;49.136;10.366;2023-06-24T09:57:01;6.35;;;2.70;;
20431;SDS011;10375;49.136;10.366;2023-06-24T09:59:30;4.53;;;2.17;;
20431;SDS011;10375;49.136;10.366;2023-06-24T10:02:00;6.90;;;2.20;;
20431;SDS011;10375;49.136;10.366;2023-06-24T10:04:29;3.72;;;2.40;;
20431;SDS011;10375;49.136;10.366;2023-06-24T10:06:58;8.52;;;2.70;;
20431;SDS011;10375;49.136;10.366;2023-06-24T10:09:26;3.75;;;2.30;;
20431;SDS011;10375;49.136;10.366;2023-06-24T10:11:54;3.88;;;2.50;;
20431;SDS011;10375;49.136;10.366;2023-06-24T10:14:21;6.25;;;2.20;;
20431;SDS011;10375;49.136;10.366;2023-06-24T10:16:48;49.25;;;5.00;;
20431;SDS011;10375;49.136;10.366;2023-06-24T10:19:19;4.65;;;2.40;;
20431;SDS011;10375;49.136;10.366;2023-06-24T10:22:02;3.22;;;2.20;;
20431;SDS011;10375;49.136;10.366;2023-06-24T10:24:42;3.05;;;2.30;;
20431;SDS011;10375;49.136;10.366;2023-06-24T10:27:22;4.40;;;2.30;;
20431;SDS011;10375;49.136;10.366;2023-06-24T10:29:53;3.00;;;2.47;;
20431;SDS011;10375;49.136;10.366;2023-06-24T10:32:23;4.70;;;2.22;;
20431;SDS011;10375;49.136;10.366;2023-06-24T10:34:54;6.40;;;2.15;;
20431;SDS011;10375;49.136;10.366;2023-06-24T10:37:23;3.80;;;2.47;;
20431;SDS011;10375;49.136;10.366;2023-06-24T10:45:21;2.60;;;2.00;;
20431;SDS011;10375;49.136;10.366;2023-06-24T10:47:49;2.60;;;2.10;;
20431;SDS011;10375;49.136;10.366;2023-06-24T10:50:20;3.30;;;2.00;;
20431;SDS011;10375;49.136;10.366;2023-06-24T10:52:48;4.68;;;2.20;;
20431;SDS011;10375;49.136;10.366;2023-06-24T10:55:20;2.83;;;2.50;;
20431;SDS011;10375;49.136;10.366;2023-06-24T10:57:50;3.50;;;2.33;;
20431;SDS011;10375;49.136;10.366;2023-06-24T11:00:17;3.13;;;2.35;;
20431;SDS011;10375;49.136;10.366;2023-06-24T11:02:48;2.42;;;2.13;;
20431;SDS011;10375;49.136;10.366;2023-06-24T11:05:16;8.48;;;2.38;;
20431;SDS011;10375;49.136;10.366;2023-06-24T11:07:43;4.20;;;2.22;;
20431;SDS011;10375;49.136;10.366;2023-06-24T11:10:11;2.58;;;2.20;;
20431;SDS011;10375;49.136;10.366;2023-06-24T11:12:40;2.45;;;2.05;;
20431;SDS011;10375;49.136;10.366;2023-06-24T11:15:08;3.05;;;1.90;;
20431;SDS011;10375;49.136;10.366;2023-06-24T11:17:39;2.78;;;2.33;;
20431;SDS011;10375;49.136;10.366;2023-06-24T11:20:08;6.03;;;2.20;;
20431;SDS011;10375;49.136;10.366;2023-06-24T11:22:36;4.63;;;3.00;;
20431;SDS011;10375;49.136;10.366;2023-06-24T11:25:04;4.15;;;2.38;;
20431;SDS011;10375;49.136;10.366;2023-06-24T11:27:31;3.03;;;2.20;;
20431;SDS011;10375;49.136;10.366;2023-06-24T11:29:59;7.05;;;2.60;;
20431;SDS011;10375;49.136;10.366;2023-06-24T11:32:38;7.60;;;2.55;;
20431;SDS011;10375;49.136;10.366;2023-06-24T11:35:08;27.20;;;2.85;;
20431;SDS011;10375;49.136;10.366;2023-06-24T11:37:36;44.15;;;3.63;;
20431;SDS011;10375;49.136;10.366;2023-06-24T11:40:04;191.80;;;13.15;;
20431;SDS011;10375;49.136;10.366;2023-06-24T11:42:36;36.88;;;3.55;;
20431;SDS011;10375;49.136;10.366;2023-06-24T11:45:06;4.03;;;1.90;;
20431;SDS011;10375;49.136;10.366;2023-06-24T11:47:39;2.67;;;1.90;;
20431;SDS011;10375;49.136;10.366;2023-06-24T11:50:07;3.85;;;2.35;;
20431;SDS011;10375;49.136;10.366;2023-06-24T11:52:38;9.90;;;2.30;;
20431;SDS011;10375;49.136;10.366;2023-06-24T11:57:47;2.88;;;1.92;;
20431;SDS011;10375;49.136;10.366;2023-06-24T12:00:24;6.05;;;2.50;;
20431;SDS011;10375;49.136;10.366;2023-06-24T12:03:00;3.10;;;2.15;;
20431;SDS011;10375;49.136;10.366;2023-06-24T12:05:31;6.93;;;2.75;;
20431;SDS011;10375;49.136;10.366;2023-06-24T12:08:04;3.00;;;2.47;;
20431;SDS011;10375;49.136;10.366;2023-06-24T12:10:36;4.65;;;2.65;;
20431;SDS011;10375;49.136;10.366;2023-06-24T12:13:06;3.05;;;2.60;;
20431;SDS011;10375;49.136;10.366;2023-06-24T12:15:35;2.38;;;2.00;;
20431;SDS011;10375;49.136;10.366;2023-06-24T12:18:03;5.75;;;2.47;;
20431;SDS011;10375;49.136;10.366;2023-06-24T12:20:30;2.45;;;2.10;;
20431;SDS011;10375;49.136;10.366;2023-06-24T12:23:03;3.55;;;2.22;;
20431;SDS011;10375;49.136;10.366;2023-06-24T12:25:30;2.63;;;2.00;;
20431;SDS011;10375;49.136;10.366;2023-06-24T12:27:57;2.22;;;2.03;;
20431;SDS011;10375;49.136;10.366;2023-06-24T12:30:27;18.85;;;4.18;;
20431;SDS011;10375;49.136;10.366;2023-06-24T12:32:54;4.80;;;2.30;;
20431;SDS011;10375;49.136;10.366;2023-06-24T12:35:22;3.50;;;2.00;;
20431;SDS011;10375;49.136;10.366;2023-06-24T12:37:52;2.58;;;2.20;;
20431;SDS011;10375;49.136;10.366;2023-06-24T12:40:19;4.65;;;2.17;;
20431;SDS011;10375;49.136;10.366;2023-06-24T12:42:46;5.50;;;2.10;;
20431;SDS011;10375;49.136;10.366;2023-06-24T12:45:13;4.47;;;2.58;;
20431;SDS011;10375;49.136;10.366;2023-06-24T12:47:41;7.38;;;2.47;;
20431;SDS011;10375;49.136;10.366;2023-06-24T12:50:08;8.63;;;2.75;;
20431;SDS011;10375;49.136;10.366;2023-06-24T12:52:36;2.55;;;2.28;;
20431;SDS011;10375;49.136;10.366;2023-06-24T12:55:04;2.58;;;1.75;;
20431;SDS011;10375;49.136;10.366;2023-06-24T12:57:34;4.32;;;2.25;;
20431;SDS011;10375;49.136;10.366;2023-06-24T13:00:02;7.63;;;2.92;;
20431;SDS011;10375;49.136;10.366;2023-06-24T13:02:32;4.07;;;2.00;;
20431;SDS011;10375;49.136;10.366;2023-06-24T13:04:59;3.33;;;2.50;;
20431;SDS011;10375;49.136;10.366;2023-06-24T13:07:27;2.38;;;2.00;;
20431;SDS011;10375;49.136;10.366;2023-06-24T13:09:54;4.55;;;2.10;;
20431;SDS011;10375;49.136;10.366;2023-06-24T13:12:21;4.85;;;2.22;;
20431;SDS011;10375;49.136;10.366;2023-06-24T13:14:48;2.78;;;2.05;;
20431;SDS011;10375;49.136;10.366;2023-06-24T13:17:16;3.08;;;2.20;;
20431;SDS011;10375;49.136;10.366;2023-06-24T13:19:43;2.72;;;2.00;;
20431;SDS011;10375;49.136;10.366;2023-06-24T13:22:10;3.40;;;2.00;;
20431;SDS011;10375;49.136;10.366;2023-06-24T13:24:37;5.38;;;1.85;;
20431;SDS011;10375;49.136;10.366;2023-06-24T13:27:04;2.70;;;1.88;;
20431;SDS011;10375;49.136;10.366;2023-06-24T13:29:31;3.45;;;2.10;;
20431;SDS011;10375;49.136;10.366;2023-06-24T13:31:58;4.38;;;1.85;;
20431;SDS011;10375;49.136;10.366;2023-06-24T13:34:25;3.05;;;2.00;;
20431;SDS011;10375;49.136;10.366;2023-06-24T13:36:53;3.55;;;2.20;;
20431;SDS011;10375;49.136;10.366;2023-06-24T13:39:20;3.63;;;1.92;;
20431;SDS011;10375;49.136;10.366;2023-06-24T13:41:51;2.25;;;1.77;;
20431;SDS011;10375;49.136;10.366;2023-06-24T13:44:21;2.20;;;1.80;;
20431;SDS011;10375;49.136;10.366;2023-06-24T13:46:48;5.53;;;2.05;;
20431;SDS011;10375;49.136;10.366;2023-06-24T13:49:16;3.55;;;1.80;;
20431;SDS011;10375;49.136;10.366;2023-06-24T13:51:43;3.17;;;2.08;;
20431;SDS011;10375;49.136;10.366;2023-06-24T13:54:10;3.50;;;2.30;;
20431;SDS011;10375;49.136;10.366;2023-06-24T13:56:41;2.35;;;1.63;;
20431;SDS011;10375;49.136;10.366;2023-06-24T13:59:08;4.25;;;1.95;;
20431;SDS011;10375;49.136;10.366;2023-06-24T14:01:37;2.97;;;1.95;;
20431;SDS011;10375;49.136;10.366;2023-06-24T14:04:04;3.60;;;1.90;;
20431;SDS011;10375;49.136;10.366;2023-06-24T14:06:32;2.40;;;2.17;;
20431;SDS011;10375;49.136;10.366;2023-06-24T14:08:59;2.70;;;2.33;;
20431;SDS011;10375;49.136;10.366;2023-06-24T14:11:29;2.58;;;1.85;;
20431;SDS011;10375;49.136;10.366;2023-06-24T14:13:56;2.50;;;2.10;;
20431;SDS011;10375;49.136;10.366;2023-06-24T14:16:23;3.03;;;2.13;;
20431;SDS011;10375;49.136;10.366;2023-06-24T14:18:55;3.95;;;2.25;;
20431;SDS011;10375;49.136;10.366;2023-06-24T14:21:23;3.17;;;2.05;;
20431;SDS011;10375;49.136;10.366;2023-06-24T14:23:51;3.05;;;2.20;;
20431;SDS011;10375;49.136;10.366;2023-06-24T14:26:22;3.10;;;2.30;;
20431;SDS011;10375;49.136;10.366;2023-06-24T14:28:52;2.65;;;2.30;;
20431;SDS011;10375;49.136;10.366;2023-06-24T14:31:19;142.80;;;9.40;;
20431;SDS011;10375;49.136;10.366;2023-06-24T14:33:46;2.90;;;2.05;;
20431;SDS011;10375;49.136;10.366;2023-06-24T14:36:13;6.57;;;2.50;;
20431;SDS011;10375;49.136;10.366;2023-06-24T14:38:40;2.45;;;2.00;;
20431;SDS011;10375;49.136;10.366;2023-06-24T14:41:09;2.85;;;2.08;;
20431;SDS011;10375;49.136;10.366;2023-06-24T14:43:36;2.50;;;1.92;;
20431;SDS011;10375;49.136;10.366;2023-06-24T14:46:03;5.13;;;2.30;;
20431;SDS011;10375;49.136;10.366;2023-06-24T14:48:31;2.75;;;1.88;;
20431;SDS011;10375;49.136;10.366;2023-06-24T14:50:58;3.00;;;2.17;;
20431;SDS011;10375;49.136;10.366;2023-06-24T14:53:25;2.53;;;1.92;;
20431;SDS011;10375;49.136;10.366;2023-06-24T14:55:52;2.80;;;2.28;;
20431;SDS011;10375;49.136;10.366;2023-06-24T14:58:26;4.28;;;2.15;;
20431;SDS011;10375;49.136;10.366;2023-06-24T15:00:58;7.32;;;2.92;;